Time;durP1;ratioP1;P1;durP2;ratioP2;P2;SDS_P1;SDS_P2;PMS_P1;PMS_P2;Temp;Humidity;BMP_temperature;BMP_pressure;BME280_temperature;BME280_humidity;BME280_pressure;Samples;Min_cycle;Max_cycle;Signal;HPM_P1;HPM_P2
2022/01/24 00:00:24;;;;;;;12.65;7.93;;;;;;;2.71;100.00;102588.94;5038278;28;20460;-52
2022/01/24 00:02:50;;;;;;;13.02;8.35;;;;;;;2.72;100.00;102577.50;5032484;28;20029;-50
2022/01/24 00:05:18;;;;;;;17.60;7.50;;;;;;;2.72;100.00;102581.91;5039006;28;20029;-52
2022/01/24 00:07:44;;;;;;;13.30;7.20;;;;;;;2.73;100.00;102579.19;5040395;28;20029;-53
2022/01/24 00:10:15;;;;;;;13.88;7.40;;;;;;;2.73;100.00;102568.72;5034003;28;20733;-53
2022/01/24 00:18:13;;;;;;;10.25;6.82;;;;;;;2.78;100.00;102561.44;5033300;28;20059;-54
2022/01/24 00:28:50;;;;;;;14.80;7.78;;;;;;;2.85;100.00;102556.69;5040299;28;20214;-54
2022/01/24 00:31:16;;;;;;;13.77;7.20;;;;;;;2.87;100.00;102560.06;5037774;28;20511;-54
2022/01/24 00:33:41;;;;;;;11.50;6.68;;;;;;;2.88;100.00;102560.91;5042421;28;20028;-51
2022/01/24 00:36:06;;;;;;;10.57;7.63;;;;;;;2.86;100.00;102549.66;5044597;28;20549;-55
2022/01/24 00:38:33;;;;;;;13.73;8.30;;;;;;;2.82;100.00;102546.38;5031346;28;20550;-52
2022/01/24 00:40:58;;;;;;;13.55;7.40;;;;;;;2.82;100.00;102544.59;5037531;28;20036;-51
2022/01/24 00:43:34;;;;;;;18.13;8.18;;;;;;;2.83;100.00;102538.41;5035953;28;20033;-53
2022/01/24 00:46:06;;;;;;;10.77;6.93;;;;;;;2.83;100.00;102545.44;5035686;28;20529;-56
2022/01/24 00:56:49;;;;;;;13.55;7.82;;;;;;;2.78;100.00;102537.00;5036230;28;20072;-50
2022/01/24 00:59:15;;;;;;;12.57;7.15;;;;;;;2.75;100.00;102547.66;5037551;28;20568;-51
2022/01/24 01:01:40;;;;;;;15.18;7.38;;;;;;;2.73;100.00;102550.38;5037671;28;20032;-53
2022/01/24 01:04:05;;;;;;;14.57;6.95;;;;;;;2.75;100.00;102547.66;5043617;28;20493;-54
2022/01/24 01:06:31;;;;;;;13.70;8.80;;;;;;;2.74;100.00;102549.47;5039034;28;20143;-54
2022/01/24 01:19:57;;;;;;;13.65;6.97;;;;;;;2.64;100.00;102564.00;5040852;28;20048;-56
2022/01/24 01:22:22;;;;;;;13.77;7.88;;;;;;;2.63;100.00;102551.84;5032783;28;20502;-51
2022/01/24 01:24:52;;;;;;;10.32;6.10;;;;;;;2.65;100.00;102557.84;5038997;28;20029;-53
2022/01/24 01:27:24;;;;;;;16.77;8.10;;;;;;;2.66;100.00;102558.66;5037690;28;20075;-51
2022/01/24 01:29:57;;;;;;;10.68;6.22;;;;;;;2.65;100.00;102549.97;5040030;28;20037;-54
2022/01/24 01:32:43;;;;;;;11.45;6.30;;;;;;;2.65;100.00;102554.38;5034336;28;20559;-54
2022/01/24 01:35:29;;;;;;;12.95;6.55;;;;;;;2.67;100.00;102558.59;5039759;28;20094;-53
2022/01/24 01:56:42;;;;;;;13.68;6.40;;;;;;;2.63;100.00;102551.84;5035140;28;20052;-54
2022/01/24 01:59:07;;;;;;;13.18;6.53;;;;;;;2.62;100.00;102548.38;5036355;28;20044;-52
2022/01/24 02:01:32;;;;;;;12.27;6.93;;;;;;;2.63;100.00;102541.34;5029812;28;20024;-55
2022/01/24 02:04:02;;;;;;;9.68;7.05;;;;;;;2.64;100.00;102550.09;5042605;28;20417;-52
2022/01/24 02:06:28;;;;;;;12.43;7.45;;;;;;;2.62;100.00;102547.53;5037084;28;20513;-51
2022/01/24 02:09:02;;;;;;;12.82;6.03;;;;;;;2.60;100.00;102549.41;5035103;28;20033;-56
2022/01/24 02:11:28;;;;;;;10.98;6.18;;;;;;;2.58;100.00;102536.41;5023512;28;20384;-54
2022/01/24 02:13:54;;;;;;;11.75;6.60;;;;;;;2.58;100.00;102540.78;5034881;28;20032;-53
2022/01/24 02:16:32;;;;;;;12.10;6.82;;;;;;;2.56;100.00;102546.13;5034798;28;20100;-55
2022/01/24 02:19:12;;;;;;;9.13;6.10;;;;;;;2.59;100.00;102547.72;5032351;28;20045;-56
2022/01/24 02:21:45;;;;;;;10.65;7.07;;;;;;;2.61;100.00;102553.72;5023639;28;20565;-52
2022/01/24 02:24:13;;;;;;;14.70;7.45;;;;;;;2.59;100.00;102540.69;5036601;28;20111;-52
2022/01/24 02:26:40;;;;;;;9.05;5.93;;;;;;;2.58;100.00;102546.88;5032788;28;20394;-52
2022/01/24 02:29:45;;;;;;;11.68;7.15;;;;;;;2.58;100.00;102546.00;5031346;28;20036;-50
2022/01/24 02:32:09;;;;;;;9.60;6.57;;;;;;;2.56;100.00;102534.81;5038121;28;20053;-53
2022/01/24 02:34:39;;;;;;;7.88;5.22;;;;;;;2.60;100.00;102537.13;5036572;28;20761;-53
2022/01/24 02:37:07;;;;;;;8.10;5.20;;;;;;;2.65;100.00;102539.50;5040085;28;20037;-53
2022/01/24 02:51:00;;;;;;;9.48;6.10;;;;;;;2.64;100.00;102535.19;5038280;28;20099;-54
2022/01/24 02:53:07;;;;;;;9.43;5.38;;;;;;;2.62;100.00;102532.66;5034516;28;20490;-55
2022/01/24 02:55:32;;;;;;;11.18;6.15;;;;;;;2.62;100.00;102540.50;5037891;28;20079;-53
2022/01/24 02:57:58;;;;;;;8.75;5.25;;;;;;;2.63;100.00;102541.34;5038003;28;20037;-50
2022/01/24 03:00:23;;;;;;;10.55;6.30;;;;;;;2.66;100.00;102545.56;5033873;28;20440;-52
2022/01/24 03:02:49;;;;;;;16.02;6.47;;;;;;;2.68;100.00;102541.09;5034819;28;20038;-55
2022/01/24 03:05:14;;;;;;;8.30;4.85;;;;;;;2.69;100.00;102534.94;5034760;28;20033;-51
2022/01/24 03:07:39;;;;;;;10.35;6.38;;;;;;;2.68;100.00;102534.06;5038558;28;20076;-51
2022/01/24 03:10:13;;;;;;;8.40;5.05;;;;;;;2.66;100.00;102535.09;5033365;28;20516;-54
2022/01/24 03:15:04;;;;;;;9.82;5.72;;;;;;;2.61;100.00;102527.53;5036271;28;20048;-52
2022/01/24 03:17:30;;;;;;;10.63;5.82;;;;;;;2.66;100.00;102515.00;5037377;28;20037;-51
2022/01/24 03:19:55;;;;;;;10.63;5.70;;;;;;;2.72;100.00;102509.41;5034748;28;21184;-52
2022/01/24 03:22:21;;;;;;;13.40;5.82;;;;;;;2.75;100.00;102506.59;5017919;28;20074;-53
2022/01/24 03:24:46;;;;;;;5.88;4.03;;;;;;;2.80;100.00;102504.53;5033849;28;20068;-51
2022/01/24 03:27:11;;;;;;;11.18;5.65;;;;;;;2.81;100.00;102506.25;5031759;28;20660;-51
2022/01/24 03:29:37;;;;;;;11.20;7.03;;;;;;;2.80;100.00;102503.72;5021223;28;20029;-54
2022/01/24 03:32:02;;;;;;;9.85;5.72;;;;;;;2.80;100.00;102501.09;5034704;28;20044;-53
2022/01/24 03:34:27;;;;;;;8.35;4.45;;;;;;;2.79;100.00;102492.38;5036837;28;20037;-54
2022/01/24 03:36:53;;;;;;;10.40;6.30;;;;;;;2.81;100.00;102500.13;5036979;28;20087;-56
2022/01/24 03:39:18;;;;;;;11.82;6.80;;;;;;;2.80;100.00;102501.94;5036031;28;20034;-53
2022/01/24 03:41:43;;;;;;;11.65;6.30;;;;;;;2.82;100.00;102496.59;5038321;28;20029;-55
2022/01/24 03:44:11;;;;;;;9.07;5.85;;;;;;;2.87;100.00;102494.56;5039054;28;20040;-53
2022/01/24 03:46:59;;;;;;;7.53;4.35;;;;;;;2.88;100.00;102490.16;5039422;28;20033;-53
2022/01/24 03:52:15;;;;;;;6.35;4.70;;;;;;;2.84;100.00;102498.19;5034286;28;20221;-55
2022/01/24 03:54:43;;;;;;;13.40;5.70;;;;;;;2.83;100.00;102501.72;5037385;28;20083;-54
2022/01/24 03:57:11;;;;;;;10.52;5.13;;;;;;;2.82;100.00;102494.81;5033717;28;20119;-56
2022/01/24 03:59:36;;;;;;;9.02;6.13;;;;;;;2.82;100.00;102486.97;5038597;28;20430;-51
2022/01/24 04:02:02;;;;;;;10.02;5.85;;;;;;;2.83;100.00;102493.03;5039838;28;20041;-50
2022/01/24 04:04:28;;;;;;;12.05;6.18;;;;;;;2.86;100.00;102486.78;5043947;28;20112;-51
2022/01/24 04:06:54;;;;;;;8.13;5.95;;;;;;;2.87;100.00;102485.84;5039618;28;20041;-54
2022/01/24 04:09:19;;;;;;;8.57;6.05;;;;;;;2.88;100.00;102487.53;5036568;28;20849;-51
2022/01/24 04:11:47;;;;;;;8.52;5.07;;;;;;;2.89;100.00;102481.34;5038462;28;20030;-52
2022/01/24 04:16:53;;;;;;;8.60;5.45;;;;;;;2.90;100.00;102483.88;5040098;28;20417;-51
2022/01/24 04:21:19;;;;;;;8.82;5.32;;;;;;;2.89;100.00;102489.19;5041411;28;20037;-54
2022/01/24 04:22:16;;;;;;;11.45;7.50;;;;;;;2.91;100.00;102487.34;5037168;28;20509;-55
2022/01/24 04:24:42;;;;;;;10.50;6.90;;;;;;;2.91;100.00;102482.94;5039737;28;20029;-54
2022/01/24 04:27:09;;;;;;;12.32;6.53;;;;;;;2.88;100.00;102477.88;5036475;28;20029;-51
2022/01/24 04:29:35;;;;;;;13.02;5.28;;;;;;;2.88;100.00;102479.66;5038225;28;20112;-52
2022/01/24 04:32:01;;;;;;;7.65;5.43;;;;;;;2.83;100.00;102480.78;5041205;28;20570;-51
2022/01/24 04:34:26;;;;;;;9.32;5.97;;;;;;;2.78;100.00;102476.75;5040657;28;20037;-54
2022/01/24 04:36:52;;;;;;;8.80;5.68;;;;;;;2.78;100.00;102480.22;5040685;28;20973;-50
2022/01/24 04:39:18;;;;;;;8.40;5.03;;;;;;;2.76;100.00;102489.09;5033752;28;20029;-50
2022/01/24 04:41:47;;;;;;;13.45;7.28;;;;;;;2.75;100.00;102483.00;5043323;28;20037;-54
2022/01/24 04:47:15;;;;;;;8.57;4.82;;;;;;;2.84;100.00;102477.25;5042237;28;20068;-52
2022/01/24 04:55:05;;;;;;;6.43;4.30;;;;;;;2.87;100.00;102478.00;5040931;28;20083;-49
2022/01/24 04:57:31;;;;;;;8.88;5.45;;;;;;;2.87;100.00;102480.63;5042659;28;20049;-51
2022/01/24 04:59:59;;;;;;;12.75;5.85;;;;;;;2.88;100.00;102475.28;5056132;28;20068;-52
2022/01/24 05:02:25;;;;;;;10.48;5.75;;;;;;;2.88;100.00;102477.88;5048554;28;20053;-54
2022/01/24 05:04:52;;;;;;;10.48;5.95;;;;;;;2.90;100.00;102481.25;5026620;28;20445;-52
2022/01/24 05:07:17;;;;;;;9.80;5.65;;;;;;;2.92;100.00;102483.78;5036633;28;20165;-54
2022/01/24 05:09:50;;;;;;;11.98;6.82;;;;;;;2.93;100.00;102480.25;5020515;28;20042;-53
2022/01/24 05:12:29;;;;;;;11.05;5.10;;;;;;;2.93;100.00;102482.84;5051899;28;20040;-52
2022/01/24 05:23:53;;;;;;;13.45;5.30;;;;;;;2.92;100.00;102486.41;5050060;28;20198;-55
2022/01/24 05:25:54;;;;;;;12.68;7.05;;;;;;;2.90;100.00;102489.13;5028241;28;20053;-55
2022/01/24 05:28:20;;;;;;;9.75;5.68;;;;;;;2.88;100.00;102487.53;5054240;28;20049;-52
2022/01/24 05:30:46;;;;;;;10.30;5.93;;;;;;;2.88;100.00;102495.41;5039608;28;20585;-49
2022/01/24 05:33:11;;;;;;;16.95;7.85;;;;;;;2.87;100.00;102496.34;5047598;28;20525;-53
2022/01/24 05:35:37;;;;;;;11.57;5.28;;;;;;;2.88;100.00;102495.41;5043479;28;20063;-57
2022/01/24 05:38:03;;;;;;;11.88;6.68;;;;;;;2.88;100.00;102498.00;5036059;28;20040;-51
2022/01/24 05:40:28;;;;;;;9.57;5.15;;;;;;;2.87;100.00;102509.44;5043585;28;20034;-54
2022/01/24 05:42:53;;;;;;;14.57;8.20;;;;;;;2.88;100.00;102500.63;5039717;28;20044;-51
2022/01/24 05:45:19;;;;;;;10.50;7.07;;;;;;;2.86;100.00;102508.56;5042370;28;20067;-51
2022/01/24 05:47:45;;;;;;;8.02;5.80;;;;;;;2.83;100.00;102506.97;5048634;28;20040;-53
2022/01/24 05:50:11;;;;;;;11.40;6.13;;;;;;;2.81;100.00;102506.25;5043646;28;20029;-50
2022/01/24 05:52:36;;;;;;;13.35;5.93;;;;;;;2.78;100.00;102500.31;5035010;28;20052;-55
2022/01/24 05:55:03;;;;;;;10.85;6.25;;;;;;;2.79;100.00;102499.41;5031842;28;20037;-51
2022/01/24 05:57:28;;;;;;;12.57;6.30;;;;;;;2.79;100.00;102502.88;5045696;28;20539;-54
2022/01/24 05:59:54;;;;;;;14.52;6.97;;;;;;;2.83;100.00;102506.13;5044987;28;20029;-56
2022/01/24 06:02:20;;;;;;;13.30;7.28;;;;;;;2.84;100.00;102508.69;5043095;28;20522;-52
2022/01/24 06:04:45;;;;;;;10.00;6.45;;;;;;;2.87;100.00;102505.03;5042513;28;20048;-52
2022/01/24 06:07:11;;;;;;;17.92;7.95;;;;;;;2.87;100.00;102507.66;5049649;28;20021;-53
2022/01/24 06:09:36;;;;;;;12.40;7.45;;;;;;;2.87;100.00;102497.19;5042679;28;20028;-54
2022/01/24 06:12:02;;;;;;;8.07;4.97;;;;;;;2.85;100.00;102499.03;5040289;28;20343;-53
2022/01/24 06:14:27;;;;;;;8.63;5.97;;;;;;;2.84;100.00;102499.97;5033914;28;20052;-54
2022/01/24 06:16:53;;;;;;;10.93;6.13;;;;;;;2.82;100.00;102497.44;5047770;28;20036;-54
2022/01/24 06:19:19;;;;;;;10.30;6.07;;;;;;;2.83;100.00;102501.72;5053249;28;20033;-52
2022/01/24 06:21:45;;;;;;;13.73;7.05;;;;;;;2.81;100.00;102508.88;5044699;28;20397;-53
2022/01/24 06:24:11;;;;;;;10.70;7.10;;;;;;;2.82;100.00;102505.31;5036480;28;20033;-55
2022/01/24 06:26:38;;;;;;;8.75;5.82;;;;;;;2.83;100.00;102511.38;5048279;28;20025;-53
2022/01/24 06:29:03;;;;;;;14.25;8.15;;;;;;;2.82;100.00;102515.78;5050322;28;20549;-51
2022/01/24 06:31:29;;;;;;;11.35;6.63;;;;;;;2.80;100.00;102506.31;5042723;28;20163;-55
2022/01/24 06:33:55;;;;;;;10.52;6.57;;;;;;;2.79;100.00;102509.91;5039028;28;20065;-54
2022/01/24 06:36:20;;;;;;;11.25;5.85;;;;;;;2.80;100.00;102508.94;5047080;28;20033;-51
2022/01/24 06:38:46;;;;;;;13.65;7.35;;;;;;;2.78;100.00;102519.50;5047547;28;20048;-52
2022/01/24 06:41:11;;;;;;;13.77;6.30;;;;;;;2.76;100.00;102525.75;5047254;28;20082;-52
2022/01/24 06:43:36;;;;;;;9.77;6.05;;;;;;;2.75;100.00;102524.09;5043111;28;20458;-52
2022/01/24 06:46:02;;;;;;;11.32;6.28;;;;;;;2.74;100.00;102528.50;5048402;28;20033;-51
2022/01/24 06:48:28;;;;;;;8.65;5.32;;;;;;;2.75;100.00;102534.56;5041586;28;20502;-54
2022/01/24 06:50:53;;;;;;;12.07;5.68;;;;;;;2.72;100.00;102530.34;5041055;28;20033;-55
2022/01/24 06:53:19;;;;;;;13.00;6.78;;;;;;;2.72;100.00;102540.84;5040056;28;20478;-52
2022/01/24 06:55:44;;;;;;;11.95;6.40;;;;;;;2.70;100.00;102534.84;5050174;28;20085;-55
2022/01/24 06:58:09;;;;;;;15.07;7.60;;;;;;;2.69;100.00;102537.56;5040972;28;20170;-52
2022/01/24 07:00:35;;;;;;;15.23;7.13;;;;;;;2.68;100.00;102534.06;5039103;28;20033;-56
2022/01/24 07:03:00;;;;;;;10.85;5.55;;;;;;;2.71;100.00;102522.56;5056569;28;20710;-51
2022/01/24 07:05:28;;;;;;;12.00;7.35;;;;;;;2.70;100.00;102524.34;5038958;28;20040;-51
2022/01/24 07:07:56;;;;;;;10.00;6.03;;;;;;;2.70;100.00;102526.97;5038564;28;20477;-54
2022/01/24 07:10:23;;;;;;;11.82;7.03;;;;;;;2.70;100.00;102532.22;5048476;28;20115;-53
2022/01/24 07:12:50;;;;;;;12.57;6.90;;;;;;;2.71;100.00;102544.41;5041932;28;20030;-51
2022/01/24 07:15:17;;;;;;;14.77;8.38;;;;;;;2.69;100.00;102546.25;5051306;28;20021;-52
2022/01/24 07:18:01;;;;;;;12.43;6.95;;;;;;;2.71;100.00;102552.25;5039751;28;20033;-53
2022/01/24 07:20:27;;;;;;;11.65;6.40;;;;;;;2.69;100.00;102556.72;5051937;28;20116;-53
2022/01/24 07:22:52;;;;;;;12.88;6.28;;;;;;;2.67;100.00;102548.13;5053516;28;20108;-49
2022/01/24 07:25:19;;;;;;;12.82;8.05;;;;;;;2.71;100.00;102561.88;5048937;28;20454;-50
2022/01/24 07:27:44;;;;;;;14.07;8.38;;;;;;;2.73;100.00;102563.47;5031898;28;20397;-52
2022/01/24 07:30:10;;;;;;;10.38;6.75;;;;;;;2.73;100.00;102560.84;5043925;28;20036;-51
2022/01/24 07:32:35;;;;;;;10.77;7.55;;;;;;;2.71;100.00;102565.34;5038213;28;20521;-50
2022/01/24 07:35:02;;;;;;;14.30;7.63;;;;;;;2.71;100.00;102570.59;5039118;28;20121;-49
2022/01/24 07:37:28;;;;;;;13.73;6.60;;;;;;;2.72;100.00;102567.03;5043803;28;20064;-48
2022/01/24 07:39:53;;;;;;;12.50;7.30;;;;;;;2.71;100.00;102572.34;5037033;28;20040;-53
2022/01/24 07:42:50;;;;;;;14.43;6.90;;;;;;;2.67;100.00;102566.44;5038813;28;20029;-50
2022/01/24 07:45:14;;;;;;;15.95;8.70;;;;;;;2.67;100.00;102573.47;5038283;28;20037;-55
2022/01/24 07:47:40;;;;;;;16.98;8.40;;;;;;;2.63;100.00;102575.41;5018311;28;20036;-51
2022/01/24 07:50:05;;;;;;;9.95;6.93;;;;;;;2.63;100.00;102580.66;5035515;28;20036;-54
2022/01/24 07:52:34;;;;;;;10.90;6.00;;;;;;;2.62;100.00;102574.56;5039812;28;20645;-53
2022/01/24 07:54:59;;;;;;;15.10;8.20;;;;;;;2.62;100.00;102577.19;5037446;28;20045;-53
2022/01/24 07:57:25;;;;;;;14.00;8.35;;;;;;;2.64;100.00;102579.72;5041055;28;20066;-53
2022/01/24 07:59:51;;;;;;;11.27;7.15;;;;;;;2.64;100.00;102579.72;5024188;28;20116;-48
2022/01/24 08:02:16;;;;;;;12.00;5.78;;;;;;;2.65;100.00;102565.69;5039132;28;20572;-52
2022/01/24 08:04:41;;;;;;;14.38;8.18;;;;;;;2.67;100.00;102579.56;5038565;28;20036;-55
2022/01/24 08:07:07;;;;;;;15.38;8.82;;;;;;;2.66;100.00;102577.88;5037038;28;20221;-53
2022/01/24 08:09:32;;;;;;;19.95;9.38;;;;;;;2.68;100.00;102577.78;5041713;28;20029;-53
2022/01/24 08:11:58;;;;;;;15.20;8.75;;;;;;;2.68;100.00;102576.00;5038033;28;20053;-53
2022/01/24 08:14:23;;;;;;;12.20;6.97;;;;;;;2.66;100.00;102572.63;5036300;28;20029;-50
2022/01/24 08:16:48;;;;;;;11.95;7.75;;;;;;;2.67;100.00;102578.72;5033102;28;20048;-51
2022/01/24 08:19:14;;;;;;;12.68;7.28;;;;;;;2.66;100.00;102583.13;5041562;28;20397;-54
2022/01/24 08:21:39;;;;;;;12.32;6.78;;;;;;;2.67;100.00;102576.94;5035466;28;20086;-53
2022/01/24 08:24:07;;;;;;;12.63;6.95;;;;;;;2.68;100.00;102583.00;5045125;28;20083;-52
2022/01/24 08:26:33;;;;;;;13.95;8.02;;;;;;;2.68;100.00;102583.84;5035297;28;20026;-52
2022/01/24 08:28:58;;;;;;;16.40;8.38;;;;;;;2.69;100.00;102587.34;5032136;28;20030;-54
2022/01/24 08:31:24;;;;;;;16.58;7.65;;;;;;;2.69;100.00;102580.31;5044838;28;20120;-53
2022/01/24 08:33:49;;;;;;;16.27;8.57;;;;;;;2.70;100.00;102589.84;5042690;28;20470;-49
2022/01/24 08:36:14;;;;;;;15.55;7.75;;;;;;;2.71;100.00;102595.91;5039527;28;20033;-51
2022/01/24 08:38:40;;;;;;;15.63;9.45;;;;;;;2.71;100.00;102591.56;5033709;28;20053;-55
2022/01/24 08:41:23;;;;;;;18.33;9.15;;;;;;;2.72;100.00;102588.00;5041270;28;20102;-51
2022/01/24 08:46:14;;;;;;;15.40;9.25;;;;;;;2.74;100.00;102586.13;5044136;28;20028;-55
2022/01/24 08:48:39;;;;;;;16.80;9.68;;;;;;;2.75;100.00;102587.81;5036122;28;20034;-51
2022/01/24 08:51:05;;;;;;;16.40;8.93;;;;;;;2.76;100.00;102588.63;5039752;28;20103;-53
2022/01/24 08:53:33;;;;;;;22.45;9.70;;;;;;;2.76;100.00;102596.50;5032271;28;20025;-50
2022/01/24 08:56:00;;;;;;;23.67;10.77;;;;;;;2.79;100.00;102599.81;5039393;28;20258;-52
2022/01/24 08:58:27;;;;;;;22.80;10.38;;;;;;;2.79;100.00;102598.97;5044769;28;20030;-54
2022/01/24 09:00:52;;;;;;;18.13;9.65;;;;;;;2.80;100.00;102591.00;5053901;28;20027;-53
2022/01/24 09:03:19;;;;;;;20.90;9.90;;;;;;;2.82;100.00;102591.75;5055595;28;20095;-54
2022/01/24 09:05:47;;;;;;;20.40;10.45;;;;;;;2.84;100.00;102591.69;5046614;28;20076;-53
2022/01/24 09:08:13;;;;;;;21.13;9.70;;;;;;;2.85;100.00;102598.59;5057022;28;20028;-53
2022/01/24 09:10:39;;;;;;;19.05;11.52;;;;;;;2.84;100.00;102596.94;5048875;28;20037;-53
2022/01/24 09:13:06;;;;;;;17.52;10.18;;;;;;;2.84;100.00;102605.63;5036994;28;20087;-52
2022/01/24 09:15:31;;;;;;;18.58;9.13;;;;;;;2.87;100.00;102607.22;5047011;28;20370;-49
2022/01/24 09:17:57;;;;;;;24.45;11.68;;;;;;;2.88;100.00;102603.66;5055608;28;20040;-52
2022/01/24 09:20:23;;;;;;;19.02;9.48;;;;;;;2.90;100.00;102598.34;5047755;28;20021;-56
2022/01/24 09:22:49;;;;;;;23.42;10.90;;;;;;;2.92;100.00;102593.84;5031025;28;20052;-54
2022/01/24 09:25:17;;;;;;;15.45;9.63;;;;;;;2.92;100.00;102601.69;5047520;28;20558;-52
2022/01/24 09:27:44;;;;;;;18.98;11.00;;;;;;;2.93;100.00;102598.16;5046737;28;20032;-54
2022/01/24 09:30:13;;;;;;;20.45;11.30;;;;;;;2.95;100.00;102601.53;5049884;28;20033;-52
2022/01/24 09:32:39;;;;;;;20.05;10.52;;;;;;;2.96;100.00;102592.72;5031739;28;20021;-51
2022/01/24 09:35:06;;;;;;;21.20;9.85;;;;;;;2.99;100.00;102589.94;5050186;28;20121;-51
2022/01/24 09:37:33;;;;;;;20.10;10.38;;;;;;;3.00;100.00;102596.88;5047470;28;20029;-53
2022/01/24 09:39:58;;;;;;;22.85;9.85;;;;;;;3.01;100.00;102593.31;5045913;28;20116;-53
2022/01/24 09:42:24;;;;;;;23.70;10.48;;;;;;;3.02;100.00;102594.97;5047696;28;20389;-50
2022/01/24 09:44:49;;;;;;;20.83;10.55;;;;;;;3.02;100.00;102601.09;5048861;28;20122;-50
2022/01/24 09:47:16;;;;;;;15.95;8.85;;;;;;;3.03;100.00;102601.94;5049495;28;20067;-52
2022/01/24 09:49:47;;;;;;;22.83;10.38;;;;;;;3.03;100.00;102594.06;5051570;28;20437;-54
2022/01/24 09:52:12;;;;;;;20.90;10.93;;;;;;;3.04;100.00;102600.97;5057181;28;20033;-55
2022/01/24 09:54:38;;;;;;;24.90;10.63;;;;;;;3.05;100.00;102594.81;5048659;28;20058;-51
2022/01/24 09:57:03;;;;;;;20.42;8.93;;;;;;;3.05;100.00;102594.81;5043916;28;20397;-52
2022/01/24 09:59:29;;;;;;;19.85;10.13;;;;;;;3.07;100.00;102595.56;5048923;28;20539;-50
2022/01/24 10:01:55;;;;;;;21.27;10.95;;;;;;;3.08;100.00;102596.44;5051317;28;20029;-52
2022/01/24 10:04:25;;;;;;;19.88;9.07;;;;;;;3.10;100.00;102602.41;5049647;28;20473;-52
2022/01/24 10:07:11;;;;;;;20.55;9.45;;;;;;;3.12;100.00;102601.38;5030336;28;20029;-55
2022/01/24 10:09:45;;;;;;;16.13;8.85;;;;;;;3.14;100.00;102596.06;5050479;28;20193;-51
2022/01/24 10:17:46;;;;;;;29.23;13.15;;;;;;;3.17;100.00;102606.34;5042595;28;20094;-52
2022/01/24 10:20:30;;;;;;;21.17;12.27;;;;;;;3.20;100.00;102606.16;5055071;28;20056;-56
2022/01/24 10:23:20;;;;;;;22.10;10.52;;;;;;;3.18;100.00;102610.69;5047162;28;20083;-51
2022/01/24 10:26:04;;;;;;;22.33;10.93;;;;;;;3.15;100.00;102608.22;5047258;28;20024;-52
2022/01/24 10:28:32;;;;;;;16.73;9.80;;;;;;;3.17;100.00;102607.19;5041340;28;20052;-53
2022/01/24 10:31:12;;;;;;;19.70;10.52;;;;;;;3.20;100.00;102606.16;5039064;28;20052;-51
2022/01/24 10:34:11;;;;;;;21.58;11.20;;;;;;;3.24;100.00;102615.53;5033581;28;20038;-52
2022/01/24 10:36:40;;;;;;;21.15;11.68;;;;;;;3.26;100.00;102611.91;5038567;28;20033;-55
2022/01/24 10:39:30;;;;;;;19.55;10.10;;;;;;;3.30;100.00;102617.78;5032858;28;20043;-51
2022/01/24 10:42:26;;;;;;;24.42;11.88;;;;;;;3.33;100.00;102619.38;5042163;28;20475;-51
2022/01/24 10:44:52;;;;;;;23.23;10.25;;;;;;;3.37;100.00;102607.78;5034607;28;20501;-52
2022/01/24 10:47:24;;;;;;;24.40;12.07;;;;;;;3.38;100.00;102612.97;5051671;28;20428;-53
2022/01/24 10:49:52;;;;;;;23.70;11.63;;;;;;;3.42;100.00;102613.59;5054706;28;20086;-51
2022/01/24 10:52:19;;;;;;;24.38;11.45;;;;;;;3.42;100.00;102614.44;5051441;28;20021;-54
2022/01/24 10:54:45;;;;;;;16.75;9.65;;;;;;;3.43;100.00;102613.53;5052300;28;20404;-53
2022/01/24 10:57:25;;;;;;;24.63;11.50;;;;;;;3.44;100.00;102606.50;5048223;28;20032;-50
2022/01/24 11:00:01;;;;;;;22.45;10.00;;;;;;;3.43;100.00;102610.03;5057167;28;20028;-50
2022/01/24 11:02:40;;;;;;;26.10;11.30;;;;;;;3.42;100.00;102609.19;5051037;28;20047;-52
2022/01/24 11:05:25;;;;;;;17.40;10.98;;;;;;;3.40;100.00;102611.06;5041179;28;20436;-52
2022/01/24 11:07:53;;;;;;;19.60;10.98;;;;;;;3.40;100.00;102605.81;5047105;28;20536;-53
2022/01/24 11:10:19;;;;;;;24.50;12.77;;;;;;;3.44;100.00;102611.75;5052610;28;20055;-52
2022/01/24 11:12:45;;;;;;;21.73;10.48;;;;;;;3.45;100.00;102609.00;5043182;28;20022;-50
2022/01/24 11:15:11;;;;;;;21.35;12.65;;;;;;;3.48;100.00;102610.59;5053924;28;20035;-51
2022/01/24 11:17:37;;;;;;;24.13;12.75;;;;;;;3.49;100.00;102613.16;5052101;28;20307;-55
2022/01/24 11:20:04;;;;;;;23.05;12.43;;;;;;;3.47;100.00;102616.78;5042486;28;20035;-52
2022/01/24 11:22:33;;;;;;;23.50;12.77;;;;;;;3.48;100.00;102614.09;5046129;28;20033;-53
2022/01/24 11:25:06;;;;;;;23.73;12.10;;;;;;;3.46;100.00;102612.50;5053373;28;20028;-53
2022/01/24 11:27:32;;;;;;;20.90;11.27;;;;;;;3.45;100.00;102610.78;5035084;28;20033;-53
2022/01/24 11:30:04;;;;;;;27.80;14.25;;;;;;;3.47;100.00;102607.16;5050703;28;20537;-52
2022/01/24 11:32:44;;;;;;;27.05;12.38;;;;;;;3.47;100.00;102606.31;5047616;28;20473;-53
2022/01/24 11:35:09;;;;;;;24.88;11.68;;;;;;;3.51;100.00;102605.16;5049067;28;20431;-52
2022/01/24 11:37:45;;;;;;;21.17;11.85;;;;;;;3.52;100.00;102604.25;5044895;28;20040;-54
2022/01/24 11:40:20;;;;;;;21.50;12.60;;;;;;;3.53;100.00;102611.16;5057159;28;20052;-52
2022/01/24 11:42:47;;;;;;;23.00;10.82;;;;;;;3.54;100.00;102606.75;5041902;28;20029;-53
2022/01/24 11:45:17;;;;;;;21.33;10.43;;;;;;;3.54;100.00;102605.00;5034127;28;20032;-51
2022/01/24 11:47:44;;;;;;;27.05;11.55;;;;;;;3.54;100.00;102601.50;5059042;28;20032;-53
2022/01/24 11:50:28;;;;;;;23.92;12.57;;;;;;;3.54;100.00;102606.75;5055418;28;20543;-51
2022/01/24 11:52:58;;;;;;;23.15;11.65;;;;;;;3.53;100.00;102602.47;5050165;28;20131;-49
2022/01/24 11:55:36;;;;;;;26.98;12.48;;;;;;;3.57;100.00;102590.88;5043336;28;20425;-53
2022/01/24 11:58:05;;;;;;;26.13;12.50;;;;;;;3.62;100.00;102597.50;5042769;28;20504;-52
2022/01/24 12:00:44;;;;;;;23.42;12.82;;;;;;;3.69;100.00;102595.34;5044592;28;20029;-52
2022/01/24 12:03:20;;;;;;;24.52;12.77;;;;;;;3.68;100.00;102599.75;5045935;28;20079;-51
2022/01/24 12:05:50;;;;;;;27.75;14.15;;;;;;;3.65;100.00;102593.84;5045804;28;20060;-56
2022/01/24 12:08:33;;;;;;;20.52;10.48;;;;;;;3.60;100.00;102594.13;5044620;28;20036;-54
2022/01/24 12:11:29;;;;;;;25.63;13.68;;;;;;;3.62;100.00;102583.56;5056344;28;20056;-49
2022/01/24 12:14:01;;;;;;;25.95;13.35;;;;;;;3.64;100.00;102586.91;5039459;28;20042;-54
2022/01/24 12:16:42;;;;;;;20.55;10.27;;;;;;;3.61;100.00;102581.84;5040959;28;20041;-53
2022/01/24 12:19:10;;;;;;;23.05;12.63;;;;;;;3.61;100.00;102587.94;5048741;28;20041;-54
2022/01/24 12:21:37;;;;;;;20.88;10.63;;;;;;;3.66;100.00;102582.41;5046403;28;20074;-51
2022/01/24 12:24:06;;;;;;;40.30;19.65;;;;;;;3.69;100.00;102582.22;5049717;28;20047;-52
2022/01/24 12:26:34;;;;;;;46.22;20.55;;;;;;;3.69;100.00;102577.84;5052366;28;20402;-51
2022/01/24 12:29:03;;;;;;;44.70;19.83;;;;;;;3.72;100.00;102576.81;5049730;28;20041;-51
2022/01/24 12:31:31;;;;;;;32.38;16.35;;;;;;;3.74;100.00;102579.31;5042180;28;20116;-50
2022/01/24 12:34:02;;;;;;;32.10;13.25;;;;;;;3.75;100.00;102567.91;5045154;28;20063;-50
2022/01/24 12:36:36;;;;;;;28.80;13.77;;;;;;;3.76;100.00;102578.28;5041583;28;20036;-51
2022/01/24 12:39:08;;;;;;;27.48;14.77;;;;;;;3.78;100.00;102570.31;5049542;28;20041;-49
2022/01/24 12:41:38;;;;;;;24.70;12.38;;;;;;;3.75;100.00;102567.91;5057555;28;20404;-53
2022/01/24 12:46:32;;;;;;;24.90;11.55;;;;;;;3.79;100.00;102574.63;5048238;28;20063;-53
2022/01/24 12:48:59;;;;;;;22.85;11.75;;;;;;;3.79;100.00;102561.50;5048761;28;20656;-52
2022/01/24 12:51:30;;;;;;;32.30;13.25;;;;;;;3.77;100.00;102566.00;5051012;28;20040;-51
2022/01/24 12:53:56;;;;;;;25.45;14.32;;;;;;;3.76;100.00;102559.06;5050568;28;20128;-54
2022/01/24 12:56:26;;;;;;;24.15;13.60;;;;;;;3.71;100.00;102554.94;5050905;28;20123;-50
2022/01/24 12:58:53;;;;;;;24.73;12.65;;;;;;;3.74;100.00;102567.03;5039586;28;20032;-55
2022/01/24 13:01:32;;;;;;;30.58;14.20;;;;;;;3.72;100.00;102550.56;5059411;28;20033;-51